Time;durP1;ratioP1;P1;durP2;ratioP2;P2;SDS_P1;SDS_P2;PMS_P1;PMS_P2;Temp;Humidity;BMP_temperature;BMP_pressure;BME280_temperature;BME280_humidity;BME280_pressure;Samples;Min_cycle;Max_cycle;Signal;HPM_P1;HPM_P2
2021/05/30 04:02:04;;;;;;;4.57;4.27;;;11.60;99.90;;;;;;5201131;23;20562;-62
2021/05/30 04:04:30;;;;;;;4.53;4.23;;;11.60;99.90;;;;;;4955978;29;20970;-63
2021/05/30 04:06:56;;;;;;;4.33;4.00;;;11.60;99.90;;;;;;4955089;29;20463;-63
2021/05/30 04:09:22;;;;;;;4.80;4.40;;;11.60;99.90;;;;;;4956131;28;20460;-62
2021/05/30 04:11:49;;;;;;;5.40;4.50;;;11.60;99.90;;;;;;4958734;28;20505;-63
2021/05/30 04:14:15;;;;;;;5.33;4.43;;;11.60;99.90;;;;;;4958515;29;20459;-63
2021/05/30 04:16:41;;;;;;;5.50;4.53;;;11.60;99.90;;;;;;4958886;29;20458;-63
2021/05/30 04:19:08;;;;;;;5.20;4.80;;;11.60;99.90;;;;;;4958968;29;20907;-62
2021/05/30 04:21:34;;;;;;;4.90;4.03;;;11.60;99.90;;;;;;4958689;28;20482;-63
2021/05/30 04:24:00;;;;;;;5.67;5.27;;;11.70;99.90;;;;;;4958499;29;20483;-62
2021/05/30 04:26:27;;;;;;;5.37;4.87;;;11.70;99.90;;;;;;4958648;29;20532;-62
2021/05/30 04:28:53;;;;;;;5.17;4.77;;;11.80;99.90;;;;;;4958663;29;20466;-62
2021/05/30 04:31:19;;;;;;;5.47;5.07;;;11.80;99.90;;;;;;4958502;28;20479;-64
2021/05/30 04:33:45;;;;;;;4.87;4.40;;;11.80;99.90;;;;;;4964273;29;20463;-62
2021/05/30 04:36:12;;;;;;;6.20;4.73;;;11.90;99.90;;;;;;4961197;29;20460;-62
2021/05/30 04:38:38;;;;;;;5.47;5.07;;;11.90;99.90;;;;;;4958518;29;20463;-62
2021/05/30 04:41:05;;;;;;;5.10;4.80;;;11.90;99.90;;;;;;4958173;28;20472;-62
2021/05/30 04:43:31;;;;;;;6.37;5.20;;;11.90;99.90;;;;;;4957984;29;20874;-64
2021/05/30 04:45:57;;;;;;;6.67;5.90;;;11.80;99.90;;;;;;4958139;29;20460;-62
2021/05/30 04:48:23;;;;;;;4.97;4.60;;;11.80;99.90;;;;;;4958183;29;20452;-63
2021/05/30 04:51:05;;;;;;;5.10;4.80;;;11.70;99.90;;;;;;4958170;28;20482;-63
2021/05/30 04:53:35;;;;;;;5.50;5.00;;;11.70;99.90;;;;;;4958098;29;20489;-63
2021/05/30 04:56:01;;;;;;;5.70;5.20;;;11.70;99.90;;;;;;4958418;29;20510;-63
2021/05/30 04:58:28;;;;;;;5.20;4.80;;;11.90;99.90;;;;;;4957732;29;20506;-63
2021/05/30 05:00:54;;;;;;;5.77;5.37;;;11.90;99.90;;;;;;4957483;28;20487;-63
2021/05/30 05:03:20;;;;;;;6.00;5.53;;;11.90;99.90;;;;;;4957806;29;21147;-63
2021/05/30 05:05:46;;;;;;;6.27;5.67;;;12.00;99.90;;;;;;4957895;29;20460;-62
2021/05/30 05:08:13;;;;;;;5.40;4.80;;;12.20;99.90;;;;;;4957928;29;20459;-63
2021/05/30 05:10:40;;;;;;;6.23;5.63;;;12.30;99.90;;;;;;4957931;28;20487;-64
2021/05/30 05:13:06;;;;;;;6.37;5.87;;;12.20;99.90;;;;;;4958162;29;20447;-63
2021/05/30 05:15:32;;;;;;;6.17;5.57;;;12.30;99.90;;;;;;4957947;29;20451;-63
2021/05/30 05:18:09;;;;;;;5.13;4.73;;;12.40;99.90;;;;;;4957964;29;20459;-63
2021/05/30 05:20:37;;;;;;;6.63;5.33;;;12.50;99.90;;;;;;4957754;28;20479;-63
2021/05/30 05:23:07;;;;;;;5.93;5.43;;;12.40;99.90;;;;;;4958726;29;20479;-63
2021/05/30 05:25:35;;;;;;;6.03;5.57;;;12.50;99.90;;;;;;4957987;28;20452;-63
2021/05/30 05:28:03;;;;;;;5.80;5.30;;;12.60;99.90;;;;;;4957596;29;20456;-63
2021/05/30 05:30:30;;;;;;;6.10;5.70;;;12.60;99.90;;;;;;4958309;28;20440;-64
2021/05/30 05:32:59;;;;;;;6.30;5.70;;;12.80;99.90;;;;;;4957917;29;20468;-63
2021/05/30 05:35:26;;;;;;;5.87;5.47;;;12.80;99.90;;;;;;4957405;29;20459;-63
2021/05/30 05:37:54;;;;;;;6.10;5.60;;;12.80;99.90;;;;;;4957605;29;20514;-62
2021/05/30 05:40:23;;;;;;;6.10;5.60;;;12.90;99.90;;;;;;4957234;28;20463;-63
2021/05/30 05:42:50;;;;;;;5.87;5.27;;;13.10;99.90;;;;;;4957354;29;20511;-62
2021/05/30 05:45:18;;;;;;;5.77;5.37;;;13.20;99.90;;;;;;4957560;29;20463;-63
2021/05/30 05:47:44;;;;;;;5.87;5.37;;;13.40;99.90;;;;;;4958002;29;20456;-63
2021/05/30 05:50:11;;;;;;;6.50;6.00;;;13.60;99.90;;;;;;4957144;29;20470;-63
2021/05/30 05:52:38;;;;;;;6.90;6.30;;;13.50;99.90;;;;;;4957860;29;20456;-63
2021/05/30 05:55:05;;;;;;;6.17;5.67;;;13.50;99.90;;;;;;4957250;29;20484;-63
2021/05/30 05:57:31;;;;;;;6.10;5.60;;;13.70;99.90;;;;;;4957062;29;20949;-63
2021/05/30 05:59:57;;;;;;;5.23;4.83;;;13.50;99.90;;;;;;4957183;29;20459;-63
2021/05/30 06:02:24;;;;;;;6.10;5.60;;;13.70;99.90;;;;;;4956918;28;20510;-63
2021/05/30 06:04:50;;;;;;;6.40;5.90;;;13.80;99.90;;;;;;4963359;29;20459;-62
2021/05/30 06:07:17;;;;;;;6.10;5.60;;;13.90;99.90;;;;;;4964544;29;20451;-63
2021/05/30 06:09:43;;;;;;;6.80;5.90;;;13.90;99.90;;;;;;4966890;29;20452;-63
2021/05/30 06:12:11;;;;;;;8.30;5.50;;;14.10;99.90;;;;;;4956688;28;20543;-63
2021/05/30 06:14:37;;;;;;;6.00;5.60;;;14.30;99.90;;;;;;4957228;28;20467;-63
2021/05/30 06:17:04;;;;;;;6.40;5.90;;;14.40;99.90;;;;;;4957214;29;20458;-62
2021/05/30 06:19:31;;;;;;;7.57;5.67;;;14.60;99.90;;;;;;4956838;29;20459;-63
2021/05/30 06:21:57;;;;;;;6.70;6.20;;;14.90;99.90;;;;;;4956826;28;20483;-62
2021/05/30 06:24:24;;;;;;;6.30;5.80;;;14.80;99.90;;;;;;4956661;29;20965;-63
2021/05/30 06:26:53;;;;;;;6.37;5.73;;;15.00;99.90;;;;;;4956619;29;20455;-63
2021/05/30 06:29:19;;;;;;;7.43;6.00;;;15.20;99.90;;;;;;4957227;29;20519;-62
2021/05/30 06:31:46;;;;;;;5.83;5.27;;;15.40;99.90;;;;;;4956730;28;20562;-63
2021/05/30 06:34:15;;;;;;;5.97;5.30;;;15.70;99.90;;;;;;4956813;29;20455;-64
2021/05/30 06:36:42;;;;;;;5.90;5.50;;;16.00;99.90;;;;;;4956302;29;20466;-64
2021/05/30 06:39:09;;;;;;;6.00;5.60;;;16.30;99.90;;;;;;4956449;29;20459;-64
2021/05/30 06:41:35;;;;;;;7.23;5.80;;;16.40;99.90;;;;;;4956020;28;20970;-63
2021/05/30 06:44:02;;;;;;;6.07;5.57;;;16.70;99.90;;;;;;4956354;29;20962;-64
2021/05/30 06:46:29;;;;;;;5.50;5.10;;;17.00;99.90;;;;;;4956315;29;20491;-65
2021/05/30 06:48:55;;;;;;;6.20;5.70;;;17.30;99.90;;;;;;4956445;29;20527;-63
2021/05/30 06:51:22;;;;;;;5.50;5.00;;;17.60;99.90;;;;;;4956306;28;20542;-64
2021/05/30 06:53:51;;;;;;;5.30;4.90;;;18.20;99.90;;;;;;4956324;29;20455;-64
2021/05/30 06:56:18;;;;;;;6.60;6.00;;;18.80;99.90;;;;;;4956316;29;20463;-64
2021/05/30 06:58:44;;;;;;;5.40;5.00;;;19.40;99.90;;;;;;4955935;29;20962;-63
2021/05/30 07:01:12;;;;;;;5.90;5.30;;;19.90;99.90;;;;;;4955893;28;20851;-63
2021/05/30 07:03:38;;;;;;;5.87;5.37;;;20.60;99.90;;;;;;4956229;29;20483;-63
2021/05/30 07:06:05;;;;;;;4.53;4.20;;;20.80;98.50;;;;;;4956371;29;20455;-64
2021/05/30 07:08:32;;;;;;;4.60;4.30;;;21.20;94.30;;;;;;4956347;29;20459;-63
2021/05/30 07:10:59;;;;;;;4.57;4.17;;;21.60;91.70;;;;;;4956352;28;20482;-64
2021/05/30 07:13:25;;;;;;;4.60;4.30;;;22.10;91.20;;;;;;4956598;29;20436;-63
2021/05/30 07:15:52;;;;;;;4.77;4.37;;;22.30;90.80;;;;;;4956126;29;20482;-65
2021/05/30 07:18:19;;;;;;;5.17;4.80;;;22.30;92.00;;;;;;4956247;29;20462;-65
2021/05/30 07:20:46;;;;;;;4.97;4.57;;;22.50;90.80;;;;;;4955794;28;20491;-65
2021/05/30 07:23:12;;;;;;;4.90;4.43;;;23.20;86.70;;;;;;4955922;29;20478;-64
2021/05/30 07:25:39;;;;;;;5.13;4.27;;;23.80;83.60;;;;;;4956264;29;20462;-64
2021/05/30 07:28:07;;;;;;;3.83;3.50;;;24.30;73.80;;;;;;4955857;29;20558;-64
2021/05/30 07:30:33;;;;;;;4.63;4.23;;;24.70;76.90;;;;;;4955973;28;20494;-64
2021/05/30 07:33:01;;;;;;;5.17;4.87;;;24.60;81.00;;;;;;4955883;29;20455;-64
2021/05/30 07:35:27;;;;;;;4.70;4.40;;;24.30;76.30;;;;;;4957567;28;20459;-64
2021/05/30 07:37:54;;;;;;;4.73;4.43;;;24.20;77.80;;;;;;4966449;29;20458;-64
2021/05/30 07:40:20;;;;;;;5.20;4.90;;;24.80;76.10;;;;;;4956491;28;20569;-64
2021/05/30 07:42:46;;;;;;;4.90;4.60;;;24.20;75.40;;;;;;4956216;29;20546;-64
2021/05/30 07:45:14;;;;;;;6.70;4.53;;;24.20;77.10;;;;;;4958982;28;20470;-64
2021/05/30 07:47:41;;;;;;;4.60;4.20;;;24.10;74.90;;;;;;4962567;29;20484;-64
2021/05/30 07:50:09;;;;;;;4.20;3.90;;;23.60;73.00;;;;;;4960789;29;20440;-64
2021/05/30 07:52:35;;;;;;;4.40;4.10;;;23.40;76.20;;;;;;4960104;28;20471;-64
2021/05/30 07:55:03;;;;;;;5.00;4.70;;;23.60;74.80;;;;;;4960274;29;20447;-64
2021/05/30 07:57:29;;;;;;;4.40;4.10;;;24.10;72.50;;;;;;4959296;29;20465;-64
2021/05/30 07:59:56;;;;;;;4.00;3.70;;;24.20;73.50;;;;;;4959900;29;20455;-64
2021/05/30 08:02:23;;;;;;;4.37;4.00;;;24.90;71.80;;;;;;4964483;28;20483;-64
2021/05/30 08:04:50;;;;;;;4.70;4.40;;;25.50;69.60;;;;;;4963938;29;20460;-64
2021/05/30 08:07:16;;;;;;;4.23;3.93;;;26.00;68.10;;;;;;4964520;29;20455;-64
2021/05/30 08:09:43;;;;;;;4.43;4.13;;;25.30;67.70;;;;;;4963514;29;20462;-64
2021/05/30 08:12:09;;;;;;;4.70;4.30;;;25.30;67.60;;;;;;4964761;28;20486;-64
2021/05/30 08:14:36;;;;;;;4.90;4.47;;;25.20;67.00;;;;;;4961264;29;20458;-64
2021/05/30 08:17:03;;;;;;;4.47;4.17;;;25.70;69.50;;;;;;4959820;29;20459;-64
2021/05/30 08:19:30;;;;;;;4.70;4.30;;;26.50;67.60;;;;;;4959935;29;20462;-64
2021/05/30 08:21:57;;;;;;;4.30;4.00;;;26.60;65.50;;;;;;4960857;28;20479;-64
2021/05/30 08:24:23;;;;;;;5.00;4.60;;;25.20;64.40;;;;;;4959551;29;20486;-64
2021/05/30 08:26:50;;;;;;;4.13;3.83;;;25.70;64.40;;;;;;4959946;29;20522;-65
2021/05/30 08:29:16;;;;;;;4.27;3.80;;;26.10;64.60;;;;;;4959707;28;20463;-63
2021/05/30 08:31:42;;;;;;;4.20;3.90;;;26.70;65.70;;;;;;4962464;28;20479;-63
2021/05/30 08:34:08;;;;;;;4.17;3.77;;;26.60;61.30;;;;;;4962134;29;20463;-63
2021/05/30 08:36:36;;;;;;;4.80;4.40;;;26.60;62.40;;;;;;4962567;29;20456;-64
2021/05/30 08:39:02;;;;;;;3.97;3.50;;;27.60;59.60;;;;;;4963930;29;20466;-63
2021/05/30 08:41:29;;;;;;;3.63;3.30;;;27.30;59.70;;;;;;4964585;28;20502;-63
2021/05/30 08:43:55;;;;;;;4.10;3.80;;;27.80;58.20;;;;;;4962683;29;20476;-64
2021/05/30 08:46:21;;;;;;;3.83;3.63;;;28.30;56.90;;;;;;4959537;29;20490;-64
2021/05/30 08:48:47;;;;;;;4.13;3.40;;;28.00;56.50;;;;;;4958680;29;20455;-64
2021/05/30 08:51:15;;;;;;;3.53;3.30;;;28.30;57.00;;;;;;4958466;28;20491;-64
2021/05/30 08:53:43;;;;;;;3.53;3.33;;;27.50;55.20;;;;;;4959202;29;20447;-63
2021/05/30 08:56:12;;;;;;;4.90;2.90;;;27.20;57.20;;;;;;4958973;28;20459;-63
2021/05/30 08:58:41;;;;;;;2.90;2.80;;;26.40;54.50;;;;;;4958734;28;20550;-63
2021/05/30 09:01:09;;;;;;;4.17;3.30;;;26.80;56.20;;;;;;4959068;28;21066;-63
2021/05/30 09:03:53;;;;;;;3.20;3.00;;;26.90;55.80;;;;;;4958463;29;20894;-63
2021/05/30 09:06:20;;;;;;;3.00;2.80;;;27.10;53.40;;;;;;4960190;29;20448;-63
2021/05/30 09:08:51;;;;;;;5.17;3.60;;;27.40;51.70;;;;;;4969759;29;20463;-63
2021/05/30 09:11:38;;;;;;;3.10;2.90;;;27.90;52.60;;;;;;4958867;28;20618;-64
2021/05/30 09:14:08;;;;;;;3.47;3.17;;;27.80;50.10;;;;;;4959012;28;20435;-64
2021/05/30 09:16:48;;;;;;;3.63;3.27;;;27.20;53.60;;;;;;4959509;28;20490;-64
2021/05/30 09:19:38;;;;;;;3.17;2.90;;;27.70;50.00;;;;;;4959020;29;20455;-65
2021/05/30 09:22:30;;;;;;;3.07;2.87;;;27.40;52.50;;;;;;4958436;28;20546;-62
2021/05/30 09:25:20;;;;;;;3.03;2.80;;;27.40;51.90;;;;;;4940039;28;20767;-63
2021/05/30 09:27:59;;;;;;;2.80;2.60;;;27.50;53.90;;;;;;4958097;29;20444;-63
2021/05/30 09:30:32;;;;;;;3.10;2.90;;;28.10;50.20;;;;;;4958345;28;20448;-64
2021/05/30 09:33:18;;;;;;;2.80;2.70;;;27.90;49.80;;;;;;4958467;29;20436;-65
2021/05/30 09:35:52;;;;;;;3.03;2.83;;;28.60;51.30;;;;;;4958255;28;20544;-64
2021/05/30 09:38:22;;;;;;;3.20;3.00;;;28.30;51.40;;;;;;4957651;29;20443;-64
2021/05/30 09:40:51;;;;;;;2.80;2.60;;;27.40;51.30;;;;;;4957803;28;20501;-63
2021/05/30 09:43:19;;;;;;;3.00;2.80;;;27.10;54.20;;;;;;4957713;29;20573;-63
2021/05/30 09:46:06;;;;;;;2.80;2.60;;;27.10;50.20;;;;;;4958532;29;20467;-63
2021/05/30 09:48:34;;;;;;;3.23;2.93;;;27.20;49.80;;;;;;4957719;29;20447;-65
2021/05/30 09:51:05;;;;;;;3.87;3.67;;;27.00;50.90;;;;;;4957519;28;20479;-65
2021/05/30 09:53:50;;;;;;;3.50;3.30;;;26.50;50.80;;;;;;4958333;29;20475;-64
2021/05/30 09:56:27;;;;;;;5.73;5.20;;;26.20;49.90;;;;;;4959148;29;20435;-64
2021/05/30 09:58:53;;;;;;;5.97;5.43;;;26.60;52.40;;;;;;4958378;29;20446;-64
2021/05/30 10:01:20;;;;;;;5.00;4.70;;;25.80;50.00;;;;;;4958492;28;20491;-65
2021/05/30 10:03:46;;;;;;;3.90;3.70;;;26.20;51.30;;;;;;4958473;29;20511;-64
2021/05/30 10:06:13;;;;;;;3.43;3.03;;;27.10;50.80;;;;;;4957784;28;20466;-65
2021/05/30 10:08:40;;;;;;;3.27;2.70;;;27.90;48.20;;;;;;4957247;29;20969;-63
2021/05/30 10:11:06;;;;;;;3.50;3.10;;;27.70;49.80;;;;;;4957519;28;20478;-63
2021/05/30 10:13:34;;;;;;;3.10;2.90;;;26.90;50.00;;;;;;4958045;29;20462;-63
2021/05/30 10:16:00;;;;;;;3.60;3.40;;;27.50;50.60;;;;;;4957613;29;20482;-64
2021/05/30 10:18:30;;;;;;;3.00;2.80;;;28.00;49.00;;;;;;4958187;29;20463;-63
2021/05/30 10:20:59;;;;;;;3.37;3.17;;;27.80;50.00;;;;;;4957628;28;20487;-64
2021/05/30 10:23:27;;;;;;;2.80;2.57;;;28.30;47.80;;;;;;4957326;29;20483;-65
2021/05/30 10:26:11;;;;;;;2.40;2.30;;;28.70;46.50;;;;;;4958048;29;20463;-64
2021/05/30 10:28:47;;;;;;;2.63;2.43;;;28.60;49.10;;;;;;4957961;29;20487;-64
2021/05/30 10:31:19;;;;;;;3.30;2.67;;;29.20;48.00;;;;;;4958745;28;20479;-65
2021/05/30 10:34:14;;;;;;;2.90;2.70;;;28.50;47.60;;;;;;4957507;29;20448;-64
2021/05/30 10:36:42;;;;;;;2.90;2.70;;;28.50;45.70;;;;;;4958230;29;20602;-64
2021/05/30 10:39:34;;;;;;;5.77;3.10;;;28.70;45.00;;;;;;4963837;29;20447;-64
2021/05/30 10:42:16;;;;;;;3.00;2.73;;;28.70;44.30;;;;;;4961290;28;20475;-64
2021/05/30 10:44:55;;;;;;;2.60;2.50;;;28.70;44.90;;;;;;4957308;29;20443;-63
2021/05/30 10:47:41;;;;;;;2.80;2.60;;;28.90;44.10;;;;;;4957435;29;20567;-63
2021/05/30 10:50:12;;;;;;;2.37;2.27;;;29.10;44.00;;;;;;4957819;29;20447;-64
2021/05/30 10:52:40;;;;;;;3.30;3.10;;;29.50;45.20;;;;;;4958523;29;20459;-64
2021/05/30 10:55:11;;;;;;;3.70;3.33;;;29.50;43.90;;;;;;4957642;29;20448;-64
2021/05/30 10:57:42;;;;;;;3.07;2.87;;;29.00;44.70;;;;;;4958285;29;20528;-65
2021/05/30 11:00:36;;;;;;;3.30;2.70;;;28.90;45.90;;;;;;4957901;29;20432;-65
2021/05/30 11:03:08;;;;;;;2.70;2.43;;;29.50;44.90;;;;;;4958829;28;20514;-65
2021/05/30 11:05:46;;;;;;;3.20;2.90;;;29.40;46.50;;;;;;4958035;29;20506;-66
2021/05/30 11:08:50;;;;;;;3.67;3.37;;;29.90;45.50;;;;;;4958088;29;20447;-66
2021/05/30 11:11:18;;;;;;;2.93;2.73;;;30.20;44.60;;;;;;4957576;28;20483;-66
2021/05/30 11:13:52;;;;;;;2.70;2.60;;;29.60;44.30;;;;;;4957520;28;20821;-65
2021/05/30 11:16:19;;;;;;;4.73;3.27;;;29.50;45.50;;;;;;4956971;29;20463;-65
2021/05/30 11:18:56;;;;;;;3.23;2.93;;;29.10;44.60;;;;;;4958840;28;20455;-65
2021/05/30 11:21:30;;;;;;;2.47;2.37;;;29.20;45.40;;;;;;4961150;28;20531;-65
2021/05/30 11:23:58;;;;;;;2.73;2.63;;;28.60;42.40;;;;;;4961435;29;20520;-65
2021/05/30 11:26:24;;;;;;;3.03;2.83;;;27.90;44.60;;;;;;4960629;29;20455;-65
2021/05/30 11:28:50;;;;;;;3.20;3.00;;;26.50;46.00;;;;;;4960722;29;20455;-65
2021/05/30 11:31:19;;;;;;;5.40;3.90;;;26.00;47.70;;;;;;4960525;28;20487;-65
2021/05/30 11:33:54;;;;;;;4.30;3.07;;;25.80;49.70;;;;;;4960614;29;20440;-66
2021/05/30 11:36:29;;;;;;;3.27;3.07;;;25.50;52.40;;;;;;4959946;29;20921;-65
2021/05/30 11:38:57;;;;;;;3.33;3.13;;;25.50;50.80;;;;;;4959983;29;20440;-64
2021/05/30 11:41:29;;;;;;;3.30;3.10;;;25.20;48.10;;;;;;4960139;28;20511;-65
2021/05/30 11:44:01;;;;;;;3.30;3.00;;;25.00;51.70;;;;;;4960065;28;20533;-65
2021/05/30 11:46:29;;;;;;;3.63;3.37;;;25.30;50.20;;;;;;4960043;29;20450;-64
2021/05/30 11:49:10;;;;;;;4.27;2.90;;;24.90;50.20;;;;;;4959957;29;20462;-66
2021/05/30 11:51:46;;;;;;;2.67;2.47;;;25.00;51.50;;;;;;4960978;28;20986;-65
2021/05/30 11:54:13;;;;;;;5.90;4.57;;;25.30;50.30;;;;;;4960125;29;20466;-64
2021/05/30 11:56:40;;;;;;;3.80;3.53;;;24.50;50.10;;;;;;4960024;29;20455;-65
2021/05/30 11:59:06;;;;;;;3.60;3.40;;;24.20;50.40;;;;;;4960560;29;20536;-65
2021/05/30 12:01:46;;;;;;;3.60;3.30;;;24.10;50.20;;;;;;4959721;28;20491;-65
2021/05/30 12:04:23;;;;;;;2.77;2.67;;;24.30;52.60;;;;;;4960920;29;20533;-65
2021/05/30 12:06:51;;;;;;;3.77;3.50;;;24.80;52.30;;;;;;4960259;29;20439;-66
2021/05/30 12:09:18;;;;;;;2.57;2.40;;;24.90;49.10;;;;;;4960358;29;20542;-65
2021/05/30 12:11:44;;;;;;;3.57;3.37;;;24.60;50.60;;;;;;4960937;28;20530;-65
2021/05/30 12:14:11;;;;;;;3.13;2.80;;;24.50;50.30;;;;;;4966949;29;20452;-65
2021/05/30 12:16:37;;;;;;;3.50;3.17;;;24.30;50.20;;;;;;4960568;29;20868;-65
2021/05/30 12:19:05;;;;;;;3.13;2.93;;;24.30;49.00;;;;;;4959878;28;20463;-66
2021/05/30 12:21:40;;;;;;;2.80;2.60;;;24.10;50.30;;;;;;4959086;28;20989;-66
2021/05/30 12:24:10;;;;;;;3.77;3.50;;;23.70;50.80;;;;;;4959714;29;20471;-66
2021/05/30 12:26:36;;;;;;;4.03;3.80;;;23.40;50.90;;;;;;4970661;29;20455;-65
2021/05/30 12:29:03;;;;;;;3.00;2.80;;;23.40;52.60;;;;;;4959000;29;21030;-65
2021/05/30 12:31:29;;;;;;;5.60;4.53;;;23.80;51.20;;;;;;4958469;28;20567;-65
2021/05/30 12:33:58;;;;;;;3.50;3.20;;;23.80;51.70;;;;;;4958811;29;20794;-65
2021/05/30 12:36:36;;;;;;;3.23;2.97;;;23.70;50.80;;;;;;4959022;29;20456;-66
2021/05/30 12:39:09;;;;;;;2.90;2.70;;;24.00;50.60;;;;;;4960110;29;20707;-65
2021/05/30 12:41:37;;;;;;;5.83;4.33;;;24.50;51.20;;;;;;4959549;28;20921;-64
2021/05/30 12:44:07;;;;;;;2.90;2.70;;;24.80;50.30;;;;;;4958840;29;20506;-65
2021/05/30 12:46:34;;;;;;;3.40;3.20;;;24.40;50.20;;;;;;4959194;29;20458;-65
2021/05/30 12:49:13;;;;;;;3.00;2.80;;;24.50;52.30;;;;;;4959207;29;20883;-65
2021/05/30 12:51:39;;;;;;;4.30;3.47;;;24.10;50.90;;;;;;4959021;28;20541;-65
2021/05/30 12:54:19;;;;;;;3.23;3.03;;;23.50;52.00;;;;;;4958699;29;20451;-66
2021/05/30 12:56:47;;;;;;;3.00;2.80;;;23.30;53.00;;;;;;4958912;29;20459;-66
2021/05/30 12:59:14;;;;;;;3.20;3.00;;;23.60;54.00;;;;;;4958824;29;20455;-65
2021/05/30 13:01:42;;;;;;;4.97;3.30;;;23.80;55.30;;;;;;4958664;28;20483;-65
2021/05/30 13:04:32;;;;;;;3.87;3.63;;;23.90;54.00;;;;;;4958400;28;20487;-65
2021/05/30 13:07:01;;;;;;;3.23;3.07;;;24.30;52.40;;;;;;4958225;29;20444;-65
2021/05/30 13:09:42;;;;;;;3.40;3.20;;;24.30;52.10;;;;;;4958557;29;20471;-65
2021/05/30 13:12:24;;;;;;;3.70;3.40;;;24.20;52.20;;;;;;4958383;28;20486;-65
2021/05/30 13:15:04;;;;;;;3.93;3.70;;;24.40;53.60;;;;;;4958989;29;20840;-66
2021/05/30 13:17:30;;;;;;;5.67;3.70;;;23.70;52.80;;;;;;4958838;29;20451;-65
2021/05/30 13:20:08;;;;;;;4.23;3.93;;;23.60;53.70;;;;;;4958461;29;20826;-65
2021/05/30 13:22:36;;;;;;;4.80;3.60;;;23.20;54.40;;;;;;4969218;28;20486;-65
2021/05/30 13:25:04;;;;;;;4.30;4.00;;;23.20;53.70;;;;;;4961840;29;20451;-65
2021/05/30 13:27:32;;;;;;;3.67;3.47;;;23.00;53.80;;;;;;4958277;29;20447;-64
2021/05/30 13:30:07;;;;;;;4.20;3.87;;;22.80;53.90;;;;;;4958251;29;20459;-65
2021/05/30 13:32:34;;;;;;;3.83;3.50;;;22.50;54.90;;;;;;4958170;28;20471;-65
2021/05/30 13:35:00;;;;;;;4.40;4.00;;;22.60;55.20;;;;;;4958298;29;20452;-65
2021/05/30 13:37:26;;;;;;;3.70;3.50;;;22.60;55.80;;;;;;4957789;29;20943;-64
2021/05/30 13:39:55;;;;;;;3.80;3.50;;;22.80;55.10;;;;;;4958109;29;20459;-65
2021/05/30 13:42:22;;;;;;;3.63;3.43;;;22.90;55.90;;;;;;4956894;28;20478;-65
2021/05/30 13:44:48;;;;;;;3.60;3.40;;;22.80;54.00;;;;;;4958894;29;20488;-64
2021/05/30 13:47:14;;;;;;;4.00;3.70;;;22.70;53.60;;;;;;4957709;29;20510;-65
2021/05/30 13:49:40;;;;;;;3.93;3.70;;;22.70;54.30;;;;;;4957509;29;20597;-65
2021/05/30 13:52:07;;;;;;;3.60;3.40;;;23.10;55.00;;;;;;4965613;28;20506;-65
2021/05/30 13:54:34;;;;;;;4.17;3.87;;;22.80;54.20;;;;;;4958249;29;20462;-64
2021/05/30 13:57:00;;;;;;;4.77;3.53;;;22.90;53.30;;;;;;4957684;29;20551;-65
2021/05/30 13:59:28;;;;;;;4.10;3.80;;;22.50;54.40;;;;;;4958038;29;20444;-65
2021/05/30 14:01:54;;;;;;;4.10;3.80;;;22.50;53.50;;;;;;4958007;28;20832;-66
2021/05/30 14:04:21;;;;;;;3.20;3.10;;;22.80;54.50;;;;;;4957888;29;20542;-65
2021/05/30 14:06:47;;;;;;;3.33;3.13;;;22.90;52.40;;;;;;4957352;29;20455;-65
2021/05/30 14:09:14;;;;;;;36.27;34.03;;;23.40;53.40;;;;;;4958392;29;20475;-65
2021/05/30 14:11:40;;;;;;;43.10;39.57;;;23.50;54.80;;;;;;4957680;28;20479;-66
2021/05/30 14:14:06;;;;;;;5.20;4.70;;;23.70;52.70;;;;;;4957225;29;20452;-65
2021/05/30 14:16:35;;;;;;;4.77;4.47;;;23.40;52.90;;;;;;4957627;29;20491;-65
2021/05/30 14:19:01;;;;;;;3.60;3.40;;;23.10;52.60;;;;;;4957289;29;20487;-66
2021/05/30 14:21:27;;;;;;;6.00;5.50;;;23.10;54.50;;;;;;4957486;28;20978;-66
2021/05/30 14:23:54;;;;;;;3.83;3.53;;;23.30;55.50;;;;;;4958638;29;20480;-66
2021/05/30 14:26:21;;;;;;;4.50;4.10;;;23.50;52.10;;;;;;4958416;29;20462;-65
2021/05/30 14:28:47;;;;;;;7.10;6.60;;;23.70;52.90;;;;;;4957832;29;20460;-66
2021/05/30 14:31:14;;;;;;;3.27;3.07;;;23.60;54.70;;;;;;4957699;28;20480;-66
2021/05/30 14:33:41;;;;;;;7.70;3.97;;;23.40;53.90;;;;;;4959521;29;20463;-66
2021/05/30 14:36:07;;;;;;;6.33;4.77;;;22.90;53.30;;;;;;4958904;29;20552;-65
2021/05/30 14:38:33;;;;;;;7.57;7.00;;;22.50;53.40;;;;;;4961359;29;20455;-66
2021/05/30 14:41:00;;;;;;;3.93;3.73;;;22.20;55.10;;;;;;4964773;28;20475;-65
2021/05/30 14:43:26;;;;;;;3.83;3.53;;;22.30;54.00;;;;;;4958456;29;20576;-66
2021/05/30 14:45:52;;;;;;;5.23;4.93;;;22.50;53.40;;;;;;4959341;29;20486;-65
2021/05/30 14:48:19;;;;;;;5.03;4.67;;;22.30;53.20;;;;;;4958850;29;20464;-66
2021/05/30 14:50:48;;;;;;;10.60;9.60;;;22.50;53.20;;;;;;4958319;28;20479;-66
2021/05/30 14:53:15;;;;;;;5.90;5.50;;;22.70;55.60;;;;;;4957071;28;20451;-65
2021/05/30 14:55:41;;;;;;;4.40;3.90;;;22.70;56.40;;;;;;4957142;29;20455;-66
2021/05/30 14:58:08;;;;;;;9.23;8.40;;;23.00;54.60;;;;;;4957529;29;20510;-66
2021/05/30 15:00:34;;;;;;;7.17;6.67;;;22.90;53.20;;;;;;4957398;28;20475;-65
2021/05/30 15:03:00;;;;;;;4.77;4.43;;;22.80;54.20;;;;;;4956532;29;20444;-65
2021/05/30 15:05:27;;;;;;;8.43;7.60;;;22.10;53.20;;;;;;4957042;28;20446;-65
2021/05/30 15:07:55;;;;;;;4.50;4.20;;;22.00;54.50;;;;;;4957443;29;20456;-65
2021/05/30 15:10:25;;;;;;;11.60;10.70;;;22.30;55.40;;;;;;4957198;28;20454;-64
2021/05/30 15:12:51;;;;;;;4.20;3.90;;;22.50;55.30;;;;;;4956984;29;20554;-65
2021/05/30 15:15:18;;;;;;;82.23;74.80;;;22.60;53.10;;;;;;4956412;29;20452;-65
2021/05/30 15:17:46;;;;;;;8.17;7.50;;;22.70;53.30;;;;;;4957537;29;20455;-66
2021/05/30 15:20:13;;;;;;;3.60;3.40;;;22.90;52.40;;;;;;4957263;29;20853;-66
2021/05/30 15:22:40;;;;;;;3.03;2.83;;;23.00;53.50;;;;;;4956810;28;20480;-66
2021/05/30 15:25:08;;;;;;;3.10;2.90;;;23.00;53.20;;;;;;4956913;29;20471;-66
2021/05/30 15:27:35;;;;;;;4.20;4.00;;;23.00;52.90;;;;;;4956708;28;20800;-66
2021/05/30 15:30:02;;;;;;;4.20;3.90;;;23.10;52.60;;;;;;4967219;29;20460;-65
2021/05/30 15:32:28;;;;;;;5.00;4.60;;;23.30;52.40;;;;;;4957341;28;20510;-66
2021/05/30 15:34:54;;;;;;;4.97;2.90;;;23.40;53.20;;;;;;4956360;29;20455;-65
2021/05/30 15:37:20;;;;;;;3.03;2.83;;;23.40;53.20;;;;;;4957620;29;20591;-65
2021/05/30 15:39:47;;;;;;;4.10;3.60;;;23.10;51.40;;;;;;4956979;29;20463;-65
2021/05/30 15:42:14;;;;;;;4.53;4.23;;;22.90;52.30;;;;;;4956945;28;20506;-64
2021/05/30 15:44:40;;;;;;;3.40;3.20;;;22.70;53.20;;;;;;4956561;29;20467;-64
2021/05/30 15:47:06;;;;;;;4.87;4.37;;;22.80;56.80;;;;;;4956772;29;20832;-64
2021/05/30 15:49:33;;;;;;;3.77;3.47;;;22.80;54.70;;;;;;4956651;29;20456;-63
2021/05/30 15:51:59;;;;;;;3.87;3.57;;;22.90;53.70;;;;;;4956311;28;20529;-64
2021/05/30 15:54:25;;;;;;;11.30;7.90;;;23.00;53.30;;;;;;4955965;29;20447;-66
2021/05/30 15:56:52;;;;;;;7.93;7.33;;;23.00;53.00;;;;;;4956555;29;20946;-65
2021/05/30 15:59:20;;;;;;;5.13;4.53;;;22.90;52.60;;;;;;4957289;28;20500;-65
2021/05/30 16:01:47;;;;;;;6.70;6.20;;;23.00;52.00;;;;;;4956885;28;20510;-65
2021/05/30 16:04:13;;;;;;;4.70;4.30;;;22.90;52.10;;;;;;4956991;28;20553;-65
2021/05/30 16:06:40;;;;;;;3.43;2.70;;;23.00;51.50;;;;;;4959338;29;20466;-65
2021/05/30 16:09:10;;;;;;;3.60;3.30;;;22.50;51.10;;;;;;4959817;29;20964;-65
2021/05/30 16:11:36;;;;;;;3.23;3.03;;;22.10;52.40;;;;;;4960476;28;20986;-64
2021/05/30 16:14:03;;;;;;;7.00;6.30;;;21.80;51.80;;;;;;4960271;29;20973;-65
2021/05/30 16:16:30;;;;;;;3.70;3.40;;;21.70;53.20;;;;;;4960423;29;20459;-65
2021/05/30 16:18:56;;;;;;;3.80;3.20;;;21.40;52.10;;;;;;4960782;29;20459;-65
2021/05/30 16:21:23;;;;;;;3.77;3.13;;;21.40;52.20;;;;;;4960339;28;20487;-65
2021/05/30 16:23:49;;;;;;;3.23;3.03;;;21.20;53.20;;;;;;4960236;29;20483;-65
2021/05/30 16:26:15;;;;;;;3.03;2.93;;;21.40;52.70;;;;;;4960819;29;20462;-65
2021/05/30 16:28:42;;;;;;;3.20;3.00;;;21.60;53.20;;;;;;4960251;29;20872;-65
2021/05/30 16:31:09;;;;;;;3.50;3.30;;;21.80;53.00;;;;;;4959922;28;20479;-65
2021/05/30 16:33:41;;;;;;;2.93;2.73;;;22.00;53.50;;;;;;4960658;29;20456;-65
2021/05/30 16:36:08;;;;;;;7.23;3.97;;;22.00;53.00;;;;;;4959722;29;20518;-65
2021/05/30 16:38:34;;;;;;;5.13;3.30;;;22.10;52.10;;;;;;4960122;29;20459;-65
2021/05/30 16:41:00;;;;;;;3.87;2.60;;;22.10;51.20;;;;;;4959814;28;20511;-66
2021/05/30 16:43:27;;;;;;;3.40;2.90;;;22.00;51.50;;;;;;4959397;29;20538;-65
2021/05/30 16:45:54;;;;;;;5.90;5.50;;;21.90;52.50;;;;;;4959353;29;20550;-66
2021/05/30 16:48:22;;;;;;;5.13;4.80;;;21.70;51.60;;;;;;4959975;29;20464;-64
2021/05/30 16:50:52;;;;;;;3.97;3.40;;;21.60;51.70;;;;;;4960060;28;20482;-64
2021/05/30 16:53:18;;;;;;;8.93;7.67;;;21.30;51.70;;;;;;4959676;29;20451;-65
2021/05/30 16:55:45;;;;;;;47.57;44.23;;;21.00;53.50;;;;;;4959233;29;20455;-65